Time;durP1;ratioP1;P1;durP2;ratioP2;P2;SDS_P1;SDS_P2;PMS_P1;PMS_P2;Temp;Humidity;BMP_temperature;BMP_pressure;BME280_temperature;BME280_humidity;BME280_pressure;Samples;Min_cycle;Max_cycle;Signal;HPM_P1;HPM_P2
2022/12/01 00:00:44;;;;;;;57.20;39.40;;;8.50;1.00;;;;;;5030889;28;20025;-62
2022/12/01 00:03:10;;;;;;;54.10;39.27;;;8.50;1.00;;;;;;5031853;28;20079;-62
2022/12/01 00:05:36;;;;;;;53.93;38.83;;;8.30;1.00;;;;;;5031798;28;20086;-62
2022/12/01 00:08:03;;;;;;;58.90;39.83;;;8.30;1.00;;;;;;5011809;28;20167;-62
2022/12/01 00:10:29;;;;;;;56.13;39.23;;;8.30;1.00;;;;;;5013215;28;20109;-62
2022/12/01 00:12:57;;;;;;;51.27;37.97;;;8.30;1.00;;;;;;5029971;28;20049;-62
2022/12/01 00:15:26;;;;;;;54.57;38.20;;;8.00;1.00;;;;;;5012847;28;20034;-62
2022/12/01 00:17:51;;;;;;;55.33;38.97;;;8.10;1.00;;;;;;5004419;28;20052;-62
2022/12/01 00:20:18;;;;;;;59.53;39.33;;;8.20;1.00;;;;;;5018106;28;20476;-62
2022/12/01 00:22:45;;;;;;;53.93;37.00;;;8.20;1.00;;;;;;5029630;28;20033;-62
2022/12/01 00:25:12;;;;;;;57.13;39.43;;;8.10;1.00;;;;;;5024121;28;20107;-62
2022/12/01 00:27:38;;;;;;;54.87;39.37;;;8.10;1.00;;;;;;5027346;28;20480;-62
2022/12/01 00:30:06;;;;;;;55.77;39.83;;;8.00;1.00;;;;;;5029074;28;20432;-62
2022/12/01 00:32:31;;;;;;;51.67;37.80;;;8.00;1.00;;;;;;5020714;28;20418;-62
2022/12/01 00:34:57;;;;;;;50.77;37.10;;;8.00;1.00;;;;;;5015813;28;20195;-62
2022/12/01 00:37:22;;;;;;;53.93;40.37;;;8.00;1.00;;;;;;5033155;28;20026;-62
2022/12/01 00:39:48;;;;;;;52.87;39.07;;;7.70;1.00;;;;;;5027249;28;20366;-63
2022/12/01 00:42:14;;;;;;;53.07;39.10;;;7.80;1.00;;;;;;5032093;28;20033;-62
2022/12/01 00:44:39;;;;;;;56.17;40.17;;;7.90;1.00;;;;;;5022176;28;20069;-62
2022/12/01 00:47:05;;;;;;;56.47;41.00;;;7.80;1.00;;;;;;5033931;28;20024;-62
2022/12/01 00:49:30;;;;;;;58.87;40.83;;;7.70;1.00;;;;;;5029906;28;20480;-62
2022/12/01 00:51:56;;;;;;;56.13;39.60;;;7.70;1.00;;;;;;5031915;28;20049;-62
2022/12/01 00:54:22;;;;;;;50.43;39.00;;;7.70;1.00;;;;;;5025760;28;20365;-62
2022/12/01 00:56:47;;;;;;;54.37;41.10;;;7.70;1.00;;;;;;5017158;28;20430;-62
2022/12/01 00:59:13;;;;;;;53.50;38.53;;;7.70;1.00;;;;;;5033038;28;20087;-63
2022/12/01 01:01:39;;;;;;;55.20;39.37;;;7.70;1.00;;;;;;5028139;28;20042;-62
2022/12/01 01:04:05;;;;;;;57.67;40.00;;;7.60;1.00;;;;;;5030998;28;20120;-63
2022/12/01 01:06:31;;;;;;;60.37;41.60;;;7.60;1.00;;;;;;5026914;28;20051;-62
2022/12/01 01:08:56;;;;;;;60.27;40.83;;;7.60;1.00;;;;;;5033569;28;20554;-62
2022/12/01 01:11:22;;;;;;;54.47;39.13;;;7.60;1.00;;;;;;5027124;28;20471;-63
2022/12/01 01:13:48;;;;;;;52.63;38.63;;;7.60;1.00;;;;;;5034881;28;20064;-63
2022/12/01 01:16:17;;;;;;;54.23;38.80;;;7.70;1.00;;;;;;5025512;28;20053;-62
2022/12/01 01:18:42;;;;;;;56.00;40.10;;;7.60;1.00;;;;;;5026946;28;20194;-62
2022/12/01 01:21:11;;;;;;;55.73;39.47;;;7.60;1.00;;;;;;5028272;28;20053;-63
2022/12/01 01:23:37;;;;;;;58.87;39.80;;;7.60;1.00;;;;;;5034868;28;20099;-63
2022/12/01 01:26:15;;;;;;;51.87;38.13;;;7.60;1.00;;;;;;5022933;28;20037;-63
2022/12/01 01:28:41;;;;;;;53.03;38.57;;;7.60;1.00;;;;;;5027105;28;20025;-63
2022/12/01 01:31:09;;;;;;;51.53;38.57;;;7.60;1.00;;;;;;5020692;28;20041;-63
2022/12/01 01:33:35;;;;;;;56.33;38.70;;;7.50;1.00;;;;;;5018723;28;20471;-62
2022/12/01 01:36:01;;;;;;;48.77;36.77;;;7.50;1.00;;;;;;5032862;28;20041;-62
2022/12/01 01:38:28;;;;;;;48.70;36.00;;;7.50;1.00;;;;;;5033195;28;20071;-63
2022/12/01 01:40:54;;;;;;;48.97;36.00;;;7.50;1.00;;;;;;5034489;28;20038;-63
2022/12/01 01:43:45;;;;;;;52.83;37.83;;;7.50;1.00;;;;;;5034371;28;20026;-63
2022/12/01 01:46:23;;;;;;;54.20;37.67;;;7.50;1.00;;;;;;5019776;28;20073;-62
2022/12/01 01:49:07;;;;;;;53.67;37.63;;;7.50;1.00;;;;;;5027591;28;20384;-62
2022/12/01 01:51:50;;;;;;;51.90;36.83;;;7.50;1.00;;;;;;5015273;28;20459;-62
2022/12/01 01:54:30;;;;;;;49.83;35.57;;;7.40;1.00;;;;;;5010786;28;20450;-63
2022/12/01 01:56:57;;;;;;;49.83;36.20;;;7.40;1.00;;;;;;5030726;28;20036;-62
2022/12/01 01:59:32;;;;;;;51.53;36.37;;;7.40;1.00;;;;;;5030542;28;20026;-62
2022/12/01 02:02:07;;;;;;;49.73;37.07;;;7.30;1.00;;;;;;5026115;28;20026;-62
2022/12/01 02:04:39;;;;;;;55.90;37.15;;;7.40;1.00;;;;;;5024327;28;20380;-62
2022/12/01 02:07:06;;;;;;;51.70;35.10;;;7.30;1.00;;;;;;5028574;28;20143;-62
2022/12/01 02:09:32;;;;;;;50.77;36.00;;;7.30;1.00;;;;;;5032895;28;20470;-62
2022/12/01 02:12:16;;;;;;;50.30;34.47;;;7.30;1.00;;;;;;5019815;28;20110;-62
2022/12/01 02:15:03;;;;;;;59.33;38.27;;;7.30;1.00;;;;;;5015894;28;20033;-62
2022/12/01 02:17:48;;;;;;;56.47;36.93;;;7.10;1.00;;;;;;5027620;28;20358;-63
2022/12/01 02:20:13;;;;;;;58.00;36.33;;;7.10;1.00;;;;;;5000865;28;20029;-62
2022/12/01 02:23:31;;;;;;;53.83;36.70;;;7.20;1.00;;;;;;5025937;28;20034;-62
2022/12/01 02:26:21;;;;;;;57.57;35.93;;;7.10;1.00;;;;;;4938103;29;20090;-62
2022/12/01 02:28:55;;;;;;;57.57;37.07;;;7.10;1.00;;;;;;4937575;29;20110;-62
2022/12/01 02:31:25;;;;;;;60.30;35.72;;;6.90;1.00;;;;;;4986659;28;20080;-62
2022/12/01 02:34:16;;;;;;;63.60;38.70;;;7.00;1.00;;;;;;5020781;28;20101;-62
2022/12/01 02:36:49;;;;;;;55.40;34.93;;;7.00;1.00;;;;;;5014333;28;20033;-62
2022/12/01 02:39:36;;;;;;;49.87;35.30;;;7.00;1.00;;;;;;5026691;28;20376;-62
2022/12/01 02:48:41;;;;;;;52.07;35.07;;;6.90;1.00;;;;;;5008047;28;20033;-62
2022/12/01 02:51:19;;;;;;;54.73;34.53;;;6.90;1.00;;;;;;5022501;28;20048;-62
2022/12/01 02:53:45;;;;;;;57.47;35.23;;;6.90;1.00;;;;;;5032282;28;20060;-62
2022/12/01 02:56:14;;;;;;;57.80;36.53;;;6.90;1.00;;;;;;5023474;28;20029;-62
2022/12/01 02:58:41;;;;;;;54.43;35.40;;;6.90;1.00;;;;;;5024345;28;20060;-62
2022/12/01 03:01:28;;;;;;;53.00;34.97;;;6.90;1.00;;;;;;5011702;28;20092;-62
2022/12/01 03:04:02;;;;;;;46.30;31.73;;;6.80;1.00;;;;;;5012549;28;20081;-62
2022/12/01 03:06:36;;;;;;;50.53;34.08;;;6.80;1.00;;;;;;5011654;28;20101;-62
2022/12/01 03:09:39;;;;;;;53.60;35.10;;;6.80;1.00;;;;;;4999800;28;20030;-62
2022/12/01 03:12:23;;;;;;;51.37;33.80;;;6.70;1.00;;;;;;5006216;28;20372;-62
2022/12/01 03:15:19;;;;;;;54.67;33.67;;;6.80;1.00;;;;;;5012499;28;20136;-62
2022/12/01 03:17:56;;;;;;;51.77;34.73;;;6.80;1.00;;;;;;5001189;28;20026;-62
2022/12/01 03:20:40;;;;;;;49.90;32.77;;;6.80;1.00;;;;;;5014299;28;20034;-62
2022/12/01 03:23:16;;;;;;;47.63;32.80;;;6.70;1.00;;;;;;5022677;28;20030;-61
2022/12/01 03:25:46;;;;;;;49.80;33.70;;;6.70;1.00;;;;;;5005954;28;20460;-62
2022/12/01 03:28:16;;;;;;;48.77;32.73;;;6.70;1.00;;;;;;5017601;28;20439;-62
2022/12/01 03:30:45;;;;;;;51.70;32.73;;;6.70;1.00;;;;;;5030904;28;20120;-62
2022/12/01 03:33:21;;;;;;;49.70;32.33;;;6.60;1.00;;;;;;5022530;28;20048;-62
2022/12/01 03:35:54;;;;;;;48.80;32.40;;;6.60;1.00;;;;;;5013878;28;20084;-62
2022/12/01 03:38:26;;;;;;;45.77;32.00;;;6.60;1.00;;;;;;5032030;28;20052;-62
2022/12/01 03:40:59;;;;;;;48.30;32.40;;;6.50;1.00;;;;;;5017142;28;20052;-62
2022/12/01 03:43:30;;;;;;;51.70;33.43;;;6.60;1.00;;;;;;5032248;28;20026;-62
2022/12/01 03:46:02;;;;;;;45.77;31.20;;;6.50;1.00;;;;;;5016631;28;20122;-62
2022/12/01 03:48:28;;;;;;;49.80;30.63;;;6.50;1.00;;;;;;5031844;28;20459;-62
2022/12/01 03:51:15;;;;;;;49.67;31.57;;;6.40;1.00;;;;;;5015455;28;20065;-62
2022/12/01 03:53:50;;;;;;;48.47;31.67;;;6.40;1.00;;;;;;5009687;28;20515;-62
2022/12/01 03:56:21;;;;;;;51.30;33.30;;;6.30;1.00;;;;;;5024432;28;20025;-62
2022/12/01 03:58:49;;;;;;;48.13;31.43;;;6.40;1.00;;;;;;5031694;28;20036;-62
2022/12/01 04:01:15;;;;;;;45.63;31.63;;;6.40;1.00;;;;;;5031993;28;20036;-63
2022/12/01 04:03:41;;;;;;;44.70;29.73;;;6.40;1.00;;;;;;5024152;28;20033;-63
2022/12/01 04:06:06;;;;;;;45.43;29.73;;;6.20;1.00;;;;;;5020081;28;20152;-62
2022/12/01 04:08:32;;;;;;;45.13;30.00;;;6.30;1.00;;;;;;5014763;28;20495;-62
2022/12/01 04:10:58;;;;;;;45.70;29.50;;;6.40;1.00;;;;;;5021942;28;20028;-62
2022/12/01 04:13:24;;;;;;;45.33;29.37;;;6.40;1.00;;;;;;5024949;28;20026;-62
2022/12/01 04:15:52;;;;;;;47.73;31.43;;;6.30;1.00;;;;;;5025853;28;20025;-62
2022/12/01 04:18:18;;;;;;;44.87;30.80;;;6.10;1.00;;;;;;5031611;28;20029;-62
2022/12/01 04:20:48;;;;;;;44.27;30.17;;;6.10;1.00;;;;;;5019923;28;20490;-62
2022/12/01 04:23:58;;;;;;;45.33;31.07;;;6.10;1.00;;;;;;5024919;28;20081;-63
2022/12/01 04:26:01;;;;;;;44.33;29.27;;;6.20;1.00;;;;;;5013474;28;20049;-62
2022/12/01 04:28:27;;;;;;;49.30;30.30;;;6.20;1.00;;;;;;5031862;28;20023;-62
2022/12/01 04:30:52;;;;;;;47.43;29.67;;;6.20;1.00;;;;;;5029958;28;20529;-62
2022/12/01 04:33:18;;;;;;;48.30;30.03;;;6.20;1.00;;;;;;5018097;28;20112;-62
2022/12/01 04:35:43;;;;;;;43.87;29.07;;;6.30;1.00;;;;;;5021959;28;20033;-62
2022/12/01 04:38:09;;;;;;;48.93;30.47;;;6.20;1.00;;;;;;5031315;28;20030;-62
2022/12/01 04:40:37;;;;;;;42.30;30.27;;;6.30;1.00;;;;;;5029891;28;20446;-62
2022/12/01 04:43:03;;;;;;;45.33;28.57;;;6.20;1.00;;;;;;5024064;28;20021;-62
2022/12/01 04:45:29;;;;;;;42.57;28.20;;;6.30;1.00;;;;;;5031400;28;20041;-62
2022/12/01 04:47:54;;;;;;;42.00;28.40;;;6.30;1.00;;;;;;5031413;28;20079;-62
2022/12/01 04:50:20;;;;;;;47.20;29.57;;;6.20;1.00;;;;;;5031413;28;20041;-62
2022/12/01 04:52:45;;;;;;;44.40;29.03;;;6.30;1.00;;;;;;5022678;28;20494;-62
2022/12/01 04:55:14;;;;;;;42.90;29.33;;;6.30;1.00;;;;;;5031364;28;20201;-62
2022/12/01 04:57:40;;;;;;;43.03;28.73;;;6.30;1.00;;;;;;5030064;28;20021;-62
2022/12/01 05:00:11;;;;;;;41.70;28.93;;;6.30;1.00;;;;;;5029997;28;20507;-62
2022/12/01 05:02:38;;;;;;;46.10;29.97;;;6.30;1.00;;;;;;5016440;28;20464;-62
2022/12/01 05:05:05;;;;;;;45.90;29.33;;;6.20;1.00;;;;;;5019373;28;20040;-62
2022/12/01 05:07:31;;;;;;;42.43;28.93;;;6.30;1.00;;;;;;5031316;28;20041;-62
2022/12/01 05:09:57;;;;;;;43.63;29.87;;;6.20;1.00;;;;;;5017191;28;20034;-62
2022/12/01 05:12:23;;;;;;;42.37;28.57;;;6.30;1.00;;;;;;5010004;28;20044;-62
2022/12/01 05:14:49;;;;;;;42.33;27.67;;;6.30;1.00;;;;;;5013433;28;20038;-62
2022/12/01 05:17:14;;;;;;;41.53;28.10;;;6.30;1.00;;;;;;5031163;28;20025;-62
2022/12/01 05:22:24;;;;;;;39.07;27.80;;;6.30;1.00;;;;;;5009027;28;20506;-62
2022/12/01 05:24:49;;;;;;;41.77;28.40;;;6.30;1.00;;;;;;5002191;28;20030;-62
2022/12/01 05:27:15;;;;;;;41.90;27.10;;;6.30;1.00;;;;;;5034713;28;20065;-62
2022/12/01 05:29:41;;;;;;;39.40;26.43;;;6.20;1.00;;;;;;5017344;28;20029;-62
2022/12/01 05:32:06;;;;;;;41.60;28.13;;;6.20;1.00;;;;;;5028164;28;20038;-62
2022/12/01 05:34:32;;;;;;;38.50;26.67;;;6.20;1.00;;;;;;5023437;28;20033;-62
2022/12/01 05:36:57;;;;;;;40.40;26.50;;;6.20;1.00;;;;;;5022275;28;20030;-62
2022/12/01 05:39:23;;;;;;;40.80;28.23;;;6.20;1.00;;;;;;5031343;28;20022;-62
2022/12/01 05:41:48;;;;;;;42.67;28.60;;;6.20;1.00;;;;;;5023932;28;20115;-62
2022/12/01 05:44:14;;;;;;;40.30;27.37;;;6.10;1.00;;;;;;5017539;28;20030;-62
2022/12/01 05:46:40;;;;;;;40.10;27.40;;;6.20;1.00;;;;;;5034337;28;20086;-62
2022/12/01 05:49:05;;;;;;;37.20;27.73;;;6.10;1.00;;;;;;5034387;28;20337;-62
2022/12/01 05:51:31;;;;;;;40.47;28.50;;;6.00;1.00;;;;;;5034169;28;20128;-62
2022/12/01 05:53:58;;;;;;;38.30;25.67;;;6.00;1.00;;;;;;5023763;28;20030;-62
2022/12/01 05:56:24;;;;;;;43.47;28.17;;;6.10;1.00;;;;;;5031775;28;20487;-62
2022/12/01 05:58:50;;;;;;;39.27;27.30;;;6.00;1.00;;;;;;5026892;28;20057;-62
2022/12/01 06:01:15;;;;;;;39.47;27.30;;;6.10;1.00;;;;;;5019755;28;20107;-62
2022/12/01 06:03:41;;;;;;;40.80;28.37;;;6.00;1.00;;;;;;5028034;28;20117;-62
2022/12/01 06:06:07;;;;;;;45.77;29.83;;;6.10;1.00;;;;;;5034352;28;20041;-62
2022/12/01 06:08:32;;;;;;;43.73;28.63;;;6.10;1.00;;;;;;5028044;28;20068;-62
2022/12/01 06:10:58;;;;;;;45.50;28.30;;;6.10;1.00;;;;;;5015541;28;20030;-62
2022/12/01 06:13:24;;;;;;;41.40;27.30;;;6.10;1.00;;;;;;5019030;28;20037;-62
2022/12/01 06:16:01;;;;;;;40.07;27.33;;;6.10;1.00;;;;;;5014357;28;20391;-62
2022/12/01 06:18:30;;;;;;;41.67;28.93;;;6.10;1.00;;;;;;5020021;28;20021;-62
2022/12/01 06:20:56;;;;;;;41.53;27.70;;;6.00;1.00;;;;;;5023104;28;20140;-62
2022/12/01 06:23:21;;;;;;;38.47;28.00;;;6.00;1.00;;;;;;5017797;28;20121;-62
2022/12/01 06:25:47;;;;;;;41.80;28.47;;;6.00;1.00;;;;;;5025155;28;20045;-62
2022/12/01 06:28:13;;;;;;;43.37;27.93;;;5.80;1.00;;;;;;5020239;28;20096;-62
2022/12/01 06:30:39;;;;;;;46.80;29.30;;;5.80;1.00;;;;;;5032299;28;20026;-62
2022/12/01 06:33:05;;;;;;;46.03;30.23;;;5.50;1.00;;;;;;5024536;28;20029;-61
2022/12/01 06:35:31;;;;;;;44.80;29.07;;;5.80;1.00;;;;;;5024774;28;20025;-65
2022/12/01 06:37:56;;;;;;;44.40;28.90;;;5.90;1.00;;;;;;5012947;28;20164;-62
2022/12/01 06:40:22;;;;;;;44.13;27.40;;;5.90;1.00;;;;;;5012312;28;20037;-62
2022/12/01 06:42:48;;;;;;;44.30;26.90;;;5.90;1.00;;;;;;5012239;28;20345;-61
2022/12/01 06:45:14;;;;;;;46.10;29.83;;;5.90;1.00;;;;;;5013064;28;20142;-61
2022/12/01 06:47:40;;;;;;;45.17;28.47;;;6.00;1.00;;;;;;5011347;28;20492;-61
2022/12/01 06:50:08;;;;;;;39.67;27.23;;;5.90;1.00;;;;;;5012851;28;20100;-61
2022/12/01 06:52:35;;;;;;;42.23;28.70;;;5.90;1.00;;;;;;5012606;28;20026;-61
2022/12/01 06:55:02;;;;;;;45.97;30.30;;;5.90;1.00;;;;;;5012419;28;20447;-62
2022/12/01 06:57:28;;;;;;;42.17;28.53;;;5.80;1.00;;;;;;5012935;28;20026;-61
2022/12/01 06:59:54;;;;;;;42.90;29.47;;;5.80;1.00;;;;;;5012661;28;20041;-62
2022/12/01 07:02:20;;;;;;;46.63;28.00;;;5.90;1.00;;;;;;5010257;28;20036;-61
2022/12/01 07:04:45;;;;;;;47.23;28.10;;;5.90;1.00;;;;;;5013010;28;20072;-61
2022/12/01 07:07:11;;;;;;;46.20;29.03;;;6.00;1.00;;;;;;5009362;28;20030;-61
2022/12/01 07:09:37;;;;;;;40.53;27.30;;;5.90;1.00;;;;;;5011685;28;20033;-61
2022/12/01 07:12:03;;;;;;;43.63;29.27;;;5.90;1.00;;;;;;5030878;28;20457;-61
2022/12/01 07:14:30;;;;;;;43.90;26.47;;;5.90;1.00;;;;;;5022856;28;20083;-61
2022/12/01 07:16:56;;;;;;;41.07;26.60;;;5.90;1.00;;;;;;5015246;28;20013;-61
2022/12/01 07:19:22;;;;;;;40.90;27.63;;;5.80;1.00;;;;;;5020672;28;20040;-61
2022/12/01 07:21:47;;;;;;;42.27;27.37;;;5.90;1.00;;;;;;5032951;28;20029;-64
2022/12/01 07:24:13;;;;;;;38.67;26.17;;;5.90;1.00;;;;;;5021164;28;20041;-62
2022/12/01 07:26:40;;;;;;;39.33;27.20;;;5.90;1.00;;;;;;5011610;28;20049;-62
2022/12/01 07:29:08;;;;;;;42.03;26.73;;;5.90;1.00;;;;;;5024464;28;20030;-62
2022/12/01 07:31:33;;;;;;;43.20;27.70;;;5.80;1.00;;;;;;5018684;28;20026;-63
2022/12/01 07:33:59;;;;;;;42.13;26.60;;;5.90;1.00;;;;;;5018552;28;20030;-62
2022/12/01 07:36:24;;;;;;;40.77;26.97;;;6.00;1.00;;;;;;5022962;28;20018;-62
2022/12/01 07:38:50;;;;;;;47.57;28.30;;;5.80;1.00;;;;;;5032303;28;20033;-62
2022/12/01 07:41:20;;;;;;;40.87;26.10;;;5.90;1.00;;;;;;5012960;28;20026;-62
2022/12/01 07:43:46;;;;;;;38.80;25.57;;;5.90;1.00;;;;;;5011283;28;20108;-63
2022/12/01 07:46:20;;;;;;;39.60;26.37;;;5.90;1.00;;;;;;5018679;28;20048;-62
2022/12/01 07:48:46;;;;;;;40.70;26.07;;;5.90;1.00;;;;;;5032226;28;20048;-61
2022/12/01 07:51:17;;;;;;;37.10;24.50;;;5.90;1.00;;;;;;5019272;28;20492;-62
2022/12/01 07:53:44;;;;;;;37.23;24.53;;;5.90;1.00;;;;;;5027465;28;20036;-62
2022/12/01 07:56:10;;;;;;;42.53;27.93;;;5.90;1.00;;;;;;5025666;28;20036;-62
2022/12/01 07:58:36;;;;;;;41.13;26.27;;;6.00;1.00;;;;;;5011863;28;20116;-62
2022/12/01 08:01:10;;;;;;;41.37;26.27;;;6.00;1.00;;;;;;5027245;28;20022;-60
2022/12/01 08:03:37;;;;;;;40.65;28.00;;;5.70;1.00;;;;;;5021250;28;20022;-61
2022/12/01 08:06:03;;;;;;;43.73;26.50;;;5.80;1.00;;;;;;5010953;28;20077;-65
2022/12/01 08:08:29;;;;;;;50.17;29.43;;;5.90;1.00;;;;;;5016168;28;20468;-53
2022/12/01 08:11:00;;;;;;;46.83;29.70;;;6.00;1.00;;;;;;5022474;28;20100;-59
2022/12/01 08:13:26;;;;;;;49.30;30.00;;;5.90;1.00;;;;;;5018143;28;20026;-58
2022/12/01 08:15:52;;;;;;;48.40;29.70;;;5.80;1.00;;;;;;5021375;28;20037;-52
2022/12/01 08:18:17;;;;;;;46.57;29.27;;;6.00;1.00;;;;;;5004395;28;20017;-51
2022/12/01 08:20:43;;;;;;;51.50;30.00;;;5.90;1.00;;;;;;5007198;28;20498;-60
2022/12/01 08:23:09;;;;;;;47.23;29.00;;;6.00;1.00;;;;;;5023344;28;20017;-61
2022/12/01 08:25:34;;;;;;;54.40;31.30;;;6.00;1.00;;;;;;5011494;28;20030;-60
2022/12/01 08:28:00;;;;;;;46.57;30.63;;;6.10;1.00;;;;;;5026513;28;20365;-60
2022/12/01 08:30:27;;;;;;;47.93;30.43;;;6.10;1.00;;;;;;5009345;28;20376;-60
2022/12/01 08:32:54;;;;;;;47.27;31.07;;;6.10;1.00;;;;;;5015150;28;20030;-61
2022/12/01 08:35:20;;;;;;;43.97;28.87;;;6.10;1.00;;;;;;5017477;28;20030;-61
2022/12/01 08:37:45;;;;;;;52.83;31.77;;;6.20;1.00;;;;;;5016014;28;20021;-61
2022/12/01 08:40:11;;;;;;;45.03;30.73;;;6.20;1.00;;;;;;5024275;28;20472;-62
2022/12/01 08:42:37;;;;;;;54.87;30.93;;;6.20;1.00;;;;;;5027527;28;20010;-62
2022/12/01 08:45:03;;;;;;;48.33;30.90;;;6.30;1.00;;;;;;5031069;28;20390;-61
2022/12/01 08:47:29;;;;;;;56.40;32.87;;;6.30;1.00;;;;;;5027112;28;20372;-61
2022/12/01 08:49:55;;;;;;;50.87;31.93;;;6.30;1.00;;;;;;5023190;28;20041;-56
2022/12/01 08:52:20;;;;;;;48.37;31.40;;;6.40;1.00;;;;;;5029517;28;20073;-62
2022/12/01 08:54:47;;;;;;;53.27;29.93;;;6.30;1.00;;;;;;5029547;28;20072;-60
2022/12/01 08:57:12;;;;;;;48.77;30.67;;;6.40;1.00;;;;;;5031236;28;20037;-61
2022/12/01 08:59:38;;;;;;;42.83;28.80;;;6.40;1.00;;;;;;5011364;28;20034;-60
2022/12/01 09:02:05;;;;;;;44.83;29.67;;;6.50;1.00;;;;;;5013905;28;20034;-69
2022/12/01 09:04:31;;;;;;;47.43;30.50;;;6.40;1.00;;;;;;5035223;28;20019;-60
2022/12/01 09:06:57;;;;;;;47.63;29.77;;;6.50;1.00;;;;;;5023795;28;20046;-60
2022/12/01 09:09:27;;;;;;;44.47;30.53;;;6.50;1.00;;;;;;5026685;28;20116;-60
2022/12/01 09:11:53;;;;;;;47.17;30.63;;;6.50;1.00;;;;;;5033620;28;20435;-60
2022/12/01 09:14:20;;;;;;;44.00;29.33;;;6.60;1.00;;;;;;5024863;28;20105;-61
2022/12/01 09:16:48;;;;;;;45.83;30.23;;;6.60;1.00;;;;;;5022987;28;20046;-60
2022/12/01 09:19:15;;;;;;;43.80;29.63;;;6.60;1.00;;;;;;5024161;28;20087;-60
2022/12/01 09:21:42;;;;;;;44.90;30.03;;;6.70;1.00;;;;;;5013664;28;20547;-60
2022/12/01 09:24:10;;;;;;;43.10;29.20;;;6.70;1.00;;;;;;5013866;28;20022;-60
2022/12/01 09:26:35;;;;;;;44.10;30.27;;;6.80;1.00;;;;;;5013599;28;20037;-60
2022/12/01 09:29:06;;;;;;;44.20;29.50;;;6.80;1.00;;;;;;5014614;28;20026;-60
2022/12/01 09:31:32;;;;;;;40.40;30.00;;;6.90;1.00;;;;;;5018488;28;20127;-60
2022/12/01 09:34:00;;;;;;;48.10;32.73;;;6.80;1.00;;;;;;5034806;28;20029;-60
2022/12/01 09:36:27;;;;;;;42.80;30.70;;;6.90;1.00;;;;;;5034707;28;20024;-60
2022/12/01 09:38:52;;;;;;;42.40;30.73;;;6.80;1.00;;;;;;5020500;28;20030;-62
2022/12/01 09:41:25;;;;;;;41.70;29.53;;;7.00;1.00;;;;;;5035031;28;20375;-59
2022/12/01 09:43:58;;;;;;;50.90;32.47;;;7.00;1.00;;;;;;5021973;28;20068;-59
2022/12/01 09:46:31;;;;;;;42.50;32.97;;;7.10;1.00;;;;;;5017901;28;20037;-59
2022/12/01 09:48:58;;;;;;;44.70;30.73;;;7.10;1.00;;;;;;5035141;28;20467;-60
2022/12/01 09:51:26;;;;;;;46.23;30.17;;;7.10;1.00;;;;;;5034312;28;20080;-62
2022/12/01 09:53:56;;;;;;;44.30;32.67;;;7.20;1.00;;;;;;5026501;28;20091;-61
2022/12/01 09:56:31;;;;;;;45.00;31.77;;;7.10;1.00;;;;;;5029934;28;20475;-58
2022/12/01 09:59:06;;;;;;;45.25;32.78;;;7.30;1.00;;;;;;5034890;28;20033;-62
2022/12/01 10:01:31;;;;;;;;;;;7.30;1.00;;;;;;5035000;28;20017;-61
2022/12/01 10:04:03;;;;;;;44.00;30.50;;;7.30;1.00;;;;;;5030131;28;19916;-63
2022/12/01 10:06:37;;;;;;;44.67;31.73;;;7.30;1.00;;;;;;5028506;28;20034;-64
2022/12/01 10:09:14;;;;;;;42.22;31.08;;;7.40;1.00;;;;;;5023684;28;20033;-62
2022/12/01 10:11:43;;;;;;;36.13;29.50;;;7.40;1.00;;;;;;5034373;28;20080;-62
2022/12/01 10:14:16;;;;;;;39.70;30.50;;;7.50;1.00;;;;;;5032725;28;20220;-58
2022/12/01 10:17:29;;;;;;;44.93;30.73;;;7.50;1.00;;;;;;5028376;28;20025;-60
2022/12/01 10:20:20;;;;;;;42.20;30.97;;;7.50;1.00;;;;;;5031620;28;20029;-59
2022/12/01 10:22:54;;;;;;;43.70;31.50;;;7.60;1.00;;;;;;5019498;28;20053;-58
2022/12/01 10:25:40;;;;;;;47.67;31.60;;;7.60;1.00;;;;;;5013956;28;20124;-59
2022/12/01 10:28:43;;;;;;;41.50;31.47;;;7.50;1.00;;;;;;5018882;28;20029;-57
2022/12/01 10:31:56;;;;;;;46.60;30.70;;;7.50;1.00;;;;;;5033966;28;20502;-58
2022/12/01 10:34:26;;;;;;;44.80;30.17;;;7.60;1.00;;;;;;5001367;28;20180;-58
2022/12/01 10:36:52;;;;;;;47.33;29.30;;;7.60;1.00;;;;;;5024906;28;20022;-58
2022/12/01 10:39:29;;;;;;;41.73;31.23;;;7.60;1.00;;;;;;5033646;28;20014;-58
2022/12/01 10:42:17;;;;;;;40.97;29.23;;;7.40;1.00;;;;;;5033938;28;20048;-58
2022/12/01 10:44:44;;;;;;;43.30;31.70;;;7.40;1.00;;;;;;5006000;28;20029;-58
2022/12/01 10:47:27;;;;;;;53.27;33.73;;;7.50;1.00;;;;;;5033891;28;20021;-57
2022/12/01 10:49:54;;;;;;;41.43;30.73;;;7.50;1.00;;;;;;5030774;28;20099;-58
2022/12/01 10:52:40;;;;;;;45.03;30.90;;;7.60;1.00;;;;;;5026166;28;20052;-58
2022/12/01 10:55:21;;;;;;;44.07;32.13;;;7.70;1.00;;;;;;5008842;28;20105;-58
2022/12/01 10:57:47;;;;;;;43.37;31.93;;;7.70;1.00;;;;;;5033641;28;20386;-57
2022/12/01 11:00:40;;;;;;;42.83;31.30;;;7.70;1.00;;;;;;5025916;28;20022;-59
2022/12/01 11:03:15;;;;;;;44.70;31.73;;;7.60;1.00;;;;;;5030525;28;20036;-58
2022/12/01 11:05:41;;;;;;;44.30;32.63;;;7.70;1.00;;;;;;5019218;28;20045;-59
2022/12/01 11:08:21;;;;;;;42.87;30.17;;;7.70;1.00;;;;;;5033002;28;20155;-58
2022/12/01 11:10:48;;;;;;;44.50;31.60;;;7.70;1.00;;;;;;5032049;28;20033;-60
2022/12/01 11:13:27;;;;;;;50.97;32.60;;;7.60;1.00;;;;;;5022994;28;20029;-60
2022/12/01 11:15:58;;;;;;;43.17;30.37;;;7.70;1.00;;;;;;5031237;28;20033;-61
2022/12/01 11:18:37;;;;;;;49.17;33.87;;;7.70;1.00;;;;;;5029411;28;20128;-60
2022/12/01 11:21:13;;;;;;;44.83;33.10;;;7.70;1.00;;;;;;5031373;28;20475;-61
2022/12/01 11:23:47;;;;;;;43.67;31.70;;;7.70;1.00;;;;;;5033144;28;20056;-61
2022/12/01 11:26:19;;;;;;;43.97;31.77;;;7.80;1.00;;;;;;5032796;28;20104;-61
2022/12/01 11:29:06;;;;;;;46.37;32.23;;;7.90;1.00;;;;;;5019029;28;20026;-60
2022/12/01 11:31:44;;;;;;;41.23;30.60;;;7.90;1.00;;;;;;5007049;28;20043;-60
2022/12/01 11:34:37;;;;;;;41.33;29.20;;;8.00;1.00;;;;;;5030012;28;20348;-60
2022/12/01 11:37:07;;;;;;;38.47;28.80;;;8.00;1.00;;;;;;5025841;28;20033;-60
2022/12/01 11:39:40;;;;;;;41.07;30.20;;;8.10;1.00;;;;;;5015494;28;20041;-60
2022/12/01 11:42:25;;;;;;;43.33;30.23;;;8.10;1.00;;;;;;5025155;28;20109;-60
2022/12/01 11:45:19;;;;;;;43.88;31.73;;;8.20;1.00;;;;;;5007204;28;20030;-60
2022/12/01 11:48:03;;;;;;;46.88;32.65;;;8.20;1.00;;;;;;5029986;28;20467;-60
2022/12/01 11:50:31;;;;;;;41.87;31.27;;;8.20;1.00;;;;;;5023543;28;20049;-60
2022/12/01 11:52:57;;;;;;;44.70;32.17;;;8.20;1.00;;;;;;5032558;28;20460;-60
2022/12/01 11:55:26;;;;;;;42.17;31.07;;;8.20;1.00;;;;;;5032459;28;20037;-60
2022/12/01 11:57:54;;;;;;;47.77;32.87;;;8.20;1.00;;;;;;5032496;28;20021;-60
2022/12/01 12:00:24;;;;;;;40.70;30.20;;;8.30;1.00;;;;;;5032355;28;20022;-60
2022/12/01 12:03:08;;;;;;;48.27;34.63;;;8.30;1.00;;;;;;5029152;28;20450;-60
2022/12/01 12:05:49;;;;;;;51.37;34.93;;;8.40;1.00;;;;;;5021997;28;20043;-60
2022/12/01 12:08:33;;;;;;;46.60;32.63;;;8.50;1.00;;;;;;5019073;28;20475;-60
2022/12/01 12:11:20;;;;;;;40.90;28.97;;;8.50;1.00;;;;;;5024870;28;20034;-61
2022/12/01 12:14:04;;;;;;;43.03;30.53;;;8.40;1.00;;;;;;5006728;28;20029;-61
2022/12/01 12:16:56;;;;;;;39.90;29.77;;;8.40;1.00;;;;;;5023332;28;20026;-61
2022/12/01 12:19:28;;;;;;;40.70;29.83;;;8.50;1.00;;;;;;5023814;28;20128;-60
2022/12/01 12:22:14;;;;;;;39.10;29.93;;;8.50;1.00;;;;;;5032427;28;20053;-60
2022/12/01 12:25:02;;;;;;;41.00;29.73;;;8.50;1.00;;;;;;5025306;28;20057;-60
2022/12/01 12:27:56;;;;;;;46.80;33.40;;;8.40;1.00;;;;;;5008153;28;20102;-60
2022/12/01 12:30:30;;;;;;;52.27;36.87;;;8.40;1.00;;;;;;5029482;28;20030;-60
2022/12/01 12:33:14;;;;;;;48.80;36.03;;;8.50;1.00;;;;;;5022338;28;20026;-60
2022/12/01 12:35:55;;;;;;;59.63;40.88;;;8.60;1.00;;;;;;5018194;28;20033;-61
2022/12/01 12:38:44;;;;;;;83.33;57.13;;;8.60;1.00;;;;;;5032035;28;20053;-60
2022/12/01 12:41:15;;;;;;;59.93;42.17;;;8.60;1.00;;;;;;5018204;28;20087;-60
2022/12/01 12:44:09;;;;;;;55.77;40.73;;;8.50;1.00;;;;;;5031987;28;20029;-60
2022/12/01 12:47:05;;;;;;;58.70;40.53;;;8.40;1.00;;;;;;5013481;28;20104;-60
2022/12/01 12:49:55;;;;;;;58.37;39.20;;;8.40;1.00;;;;;;5031849;28;20021;-60
2022/12/01 12:52:32;;;;;;;60.33;40.17;;;8.30;1.00;;;;;;5031731;28;20068;-60
2022/12/01 12:55:04;;;;;;;55.07;36.77;;;8.30;1.00;;;;;;5023966;28;20014;-60
2022/12/01 12:57:33;;;;;;;56.60;39.20;;;8.50;1.00;;;;;;5021401;28;20033;-61
2022/12/01 13:00:15;;;;;;;51.67;37.33;;;8.60;1.00;;;;;;5008400;28;20464;-61
2022/12/01 13:02:47;;;;;;;57.77;40.37;;;8.50;1.00;;;;;;5025974;28;20075;-61
2022/12/01 13:05:20;;;;;;;52.80;36.13;;;8.50;1.00;;;;;;5012041;28;20041;-61
2022/12/01 13:08:13;;;;;;;54.30;36.17;;;8.50;1.00;;;;;;5009878;28;20030;-61
2022/12/01 13:10:54;;;;;;;47.63;35.27;;;8.60;1.00;;;;;;5004345;28;20018;-61
2022/12/01 13:13:37;;;;;;;47.00;34.07;;;8.70;1.00;;;;;;5021257;28;20029;-61
2022/12/01 13:16:12;;;;;;;51.50;34.73;;;8.70;1.00;;;;;;5023015;28;20122;-62
2022/12/01 13:18:44;;;;;;;49.30;34.60;;;8.70;1.00;;;;;;5020576;28;20072;-62